Time;durP1;ratioP1;P1;durP2;ratioP2;P2;SDS_P1;SDS_P2;PMS_P1;PMS_P2;Temp;Humidity;BMP_temperature;BMP_pressure;BME280_temperature;BME280_humidity;BME280_pressure;Samples;Min_cycle;Max_cycle;Signal;HPM_P1;HPM_P2
2021/06/01 00:00:27;;;;;;;2.53;1.40;;;;;;;13.48;58.23;101003.03;4952696;28;20575;-72
2021/06/01 00:02:53;;;;;;;1.73;1.50;;;;;;;13.53;58.76;101005.53;4950585;28;20324;-72
2021/06/01 00:05:19;;;;;;;2.10;1.40;;;;;;;13.41;59.01;101003.19;4954536;28;20223;-73
2021/06/01 00:07:46;;;;;;;1.97;1.50;;;;;;;13.23;59.33;100999.16;4953748;28;20690;-70
2021/06/01 00:10:13;;;;;;;1.77;1.47;;;;;;;13.20;59.96;101001.84;4952392;28;20319;-72
2021/06/01 00:12:40;;;;;;;1.50;1.40;;;;;;;13.33;59.44;101002.50;4953392;28;20225;-73
2021/06/01 00:15:07;;;;;;;2.23;1.40;;;;;;;13.37;58.72;101002.38;4957118;28;20345;-72
2021/06/01 00:17:33;;;;;;;1.60;1.50;;;;;;;13.26;59.40;100993.84;4954241;28;20218;-70
2021/06/01 00:19:59;;;;;;;2.10;1.53;;;;;;;13.09;60.35;100996.84;4955807;28;20270;-72
2021/06/01 00:22:25;;;;;;;2.00;1.90;;;;;;;13.13;59.90;100987.16;4958540;28;20212;-71
2021/06/01 00:24:52;;;;;;;1.73;1.60;;;;;;;13.05;60.64;100998.66;4947859;28;20613;-72
2021/06/01 00:27:18;;;;;;;1.70;1.60;;;;;;;12.97;61.29;100992.69;4954761;28;20705;-72
2021/06/01 00:29:44;;;;;;;1.80;1.70;;;;;;;12.84;61.22;100992.09;4948007;28;20289;-71
2021/06/01 00:32:09;;;;;;;3.23;1.40;;;;;;;12.70;61.38;100994.97;4954693;28;20309;-70
2021/06/01 00:34:35;;;;;;;1.83;1.73;;;;;;;12.68;61.26;101001.97;4953932;28;20235;-71
2021/06/01 00:37:01;;;;;;;2.90;1.60;;;;;;;12.67;61.63;100996.78;4952648;28;20313;-72
2021/06/01 00:39:27;;;;;;;3.30;1.83;;;;;;;12.61;61.75;100995.13;4954594;28;20209;-71
2021/06/01 00:41:54;;;;;;;2.40;1.80;;;;;;;12.68;60.85;100998.50;4958807;28;20768;-71
2021/06/01 00:44:20;;;;;;;1.87;1.63;;;;;;;12.65;61.88;100999.44;4956462;28;20261;-71
2021/06/01 00:46:46;;;;;;;2.17;1.53;;;;;;;12.60;61.47;100987.31;4950376;28;20360;-72
2021/06/01 00:49:12;;;;;;;3.33;1.77;;;;;;;12.65;62.04;100995.94;4959145;28;20209;-72
2021/06/01 00:51:37;;;;;;;4.00;1.60;;;;;;;12.57;62.60;100996.09;4952812;28;20321;-73
2021/06/01 00:54:04;;;;;;;1.80;1.63;;;;;;;12.55;62.82;100992.63;4954460;28;20229;-72
2021/06/01 00:56:30;;;;;;;1.50;1.40;;;;;;;12.25;63.58;100989.66;4960067;28;20237;-72
2021/06/01 00:58:58;;;;;;;3.10;1.70;;;;;;;12.09;63.63;100991.66;4953046;28;20253;-71
2021/06/01 01:01:24;;;;;;;1.93;1.83;;;;;;;12.20;64.00;100996.72;4958747;28;20224;-72
2021/06/01 01:03:51;;;;;;;2.20;1.70;;;;;;;12.21;64.87;100989.72;4954030;28;20408;-71
2021/06/01 01:06:56;;;;;;;2.53;1.53;;;;;;;12.25;63.73;100994.00;4957932;28;20294;-73
2021/06/01 01:09:22;;;;;;;1.60;1.50;;;;;;;12.12;63.58;100996.84;4915867;28;20255;-73
2021/06/01 01:11:58;;;;;;;1.93;1.80;;;;;;;12.09;63.77;100994.28;4957039;28;20210;-72
2021/06/01 01:14:29;;;;;;;1.90;1.60;;;;;;;12.21;63.72;100990.59;4956197;28;20622;-72
2021/06/01 01:16:59;;;;;;;2.60;1.40;;;;;;;12.23;63.68;100991.44;4960283;28;20215;-72
2021/06/01 01:19:57;;;;;;;2.57;1.60;;;;;;;12.29;63.59;100995.72;4961032;28;20255;-71
2021/06/01 01:22:25;;;;;;;5.07;2.00;;;;;;;12.14;63.95;100988.13;4945058;28;20650;-71
2021/06/01 01:24:57;;;;;;;1.60;1.50;;;;;;;12.12;63.89;100989.00;4957284;28;20205;-72
2021/06/01 01:27:31;;;;;;;1.70;1.60;;;;;;;12.06;64.73;100983.84;4957301;28;20221;-70
2021/06/01 01:30:02;;;;;;;1.53;1.43;;;;;;;11.99;65.07;100979.63;4957819;28;20233;-72
2021/06/01 01:32:35;;;;;;;2.77;1.97;;;;;;;11.85;65.64;100985.06;4955625;28;20303;-72
2021/06/01 01:35:05;;;;;;;2.13;1.47;;;;;;;11.96;64.97;100995.38;4957676;28;20212;-72
2021/06/01 01:37:34;;;;;;;2.03;1.60;;;;;;;11.89;65.17;100989.38;4963233;28;20219;-72
2021/06/01 01:40:01;;;;;;;1.37;1.27;;;;;;;11.91;65.39;100994.56;4956399;28;20300;-71
2021/06/01 01:42:37;;;;;;;3.00;1.73;;;;;;;11.95;65.20;100995.38;4947182;28;20221;-72
2021/06/01 01:45:06;;;;;;;1.60;1.50;;;;;;;12.01;65.54;100990.06;4957349;28;20585;-72
2021/06/01 01:50:18;;;;;;;2.30;1.50;;;;;;;12.13;63.97;100989.88;4955451;28;20275;-72
2021/06/01 01:52:45;;;;;;;1.40;1.30;;;;;;;12.17;64.14;100981.09;4955378;28;20240;-71
2021/06/01 01:55:12;;;;;;;1.80;1.70;;;;;;;12.24;65.61;100982.69;4956926;28;20285;-72
2021/06/01 01:57:39;;;;;;;2.03;1.47;;;;;;;12.27;64.45;100984.41;4948417;28;20247;-72
2021/06/01 02:00:07;;;;;;;1.60;1.50;;;;;;;12.23;64.35;100987.94;4956993;28;20249;-72
2021/06/01 02:02:34;;;;;;;2.00;1.60;;;;;;;12.19;64.06;100983.66;4955586;28;20204;-72
2021/06/01 02:05:00;;;;;;;1.70;1.60;;;;;;;12.20;63.92;100982.78;4955071;28;20243;-72
2021/06/01 02:07:27;;;;;;;2.37;1.90;;;;;;;12.18;64.25;100990.66;4960743;28;21083;-71
2021/06/01 02:09:56;;;;;;;2.30;1.90;;;;;;;12.21;63.53;100988.00;4955412;28;20227;-72
2021/06/01 02:12:22;;;;;;;3.97;2.07;;;;;;;12.20;64.24;100986.25;4955976;28;20288;-71
2021/06/01 02:14:48;;;;;;;3.00;2.27;;;;;;;12.15;64.42;100981.97;4952356;28;20238;-71
2021/06/01 02:17:14;;;;;;;3.33;3.03;;;;;;;12.03;64.99;100983.94;4953917;28;20207;-70
2021/06/01 02:19:41;;;;;;;3.10;2.90;;;;;;;12.10;64.77;100975.06;4955466;28;20236;-71
2021/06/01 02:22:23;;;;;;;2.60;2.27;;;;;;;12.28;69.05;100976.50;4954528;28;20225;-71
2021/06/01 02:24:56;;;;;;;3.33;1.67;;;;;;;12.23;65.96;100964.38;4956300;28;20715;-72
2021/06/01 02:27:25;;;;;;;1.87;1.77;;;;;;;12.07;65.47;100969.91;4952714;28;20311;-71
2021/06/01 02:30:00;;;;;;;2.93;2.00;;;;;;;12.08;64.19;100969.00;4955091;28;20260;-72
2021/06/01 02:32:29;;;;;;;2.70;2.47;;;;;;;11.94;65.06;100965.75;4952727;28;20214;-71
2021/06/01 02:35:00;;;;;;;2.70;2.47;;;;;;;11.87;64.99;100961.47;4952436;28;20643;-71
2021/06/01 02:37:26;;;;;;;2.50;2.30;;;;;;;11.91;65.30;100964.06;4956753;28;20682;-72
2021/06/01 02:39:54;;;;;;;3.13;2.50;;;;;;;11.79;66.03;100956.34;4960555;28;20263;-71
2021/06/01 02:42:20;;;;;;;3.13;2.83;;;;;;;11.68;65.77;100963.50;4954008;28;20683;-72
2021/06/01 02:44:46;;;;;;;3.37;2.90;;;;;;;11.67;66.53;100957.44;4955257;28;20241;-72
2021/06/01 02:47:13;;;;;;;2.73;2.40;;;;;;;11.72;65.94;100962.56;4951564;28;20232;-72
2021/06/01 02:49:39;;;;;;;3.93;2.70;;;;;;;11.73;65.55;100969.53;4952525;28;20436;-72
2021/06/01 02:52:05;;;;;;;2.83;2.57;;;;;;;11.63;66.41;100965.31;4955731;28;20212;-72
2021/06/01 02:54:31;;;;;;;2.10;2.00;;;;;;;11.55;66.47;100964.56;4953330;28;21031;-72
2021/06/01 02:56:59;;;;;;;3.67;2.20;;;;;;;11.53;66.35;100967.19;4961236;28;20239;-72
2021/06/01 02:59:26;;;;;;;2.47;2.27;;;;;;;11.53;66.35;100967.19;4952036;28;20240;-72
2021/06/01 03:01:52;;;;;;;2.90;2.10;;;;;;;11.47;66.32;100965.53;4953114;28;20247;-72
2021/06/01 03:04:17;;;;;;;2.47;1.93;;;;;;;11.47;66.10;100959.44;4952159;28;20232;-71
2021/06/01 03:06:45;;;;;;;2.20;2.00;;;;;;;11.33;66.44;100962.25;4953743;28;20219;-72
2021/06/01 03:09:11;;;;;;;2.60;2.40;;;;;;;11.26;66.96;100961.47;4956682;28;20214;-72
2021/06/01 03:11:37;;;;;;;2.97;1.80;;;;;;;11.37;67.37;100958.72;4959420;28;20267;-72
2021/06/01 03:14:05;;;;;;;2.40;1.87;;;;;;;11.38;66.93;100952.63;4955347;28;20658;-72
2021/06/01 03:16:31;;;;;;;1.60;1.50;;;;;;;11.43;67.06;100948.16;4951373;28;20364;-72
2021/06/01 03:18:56;;;;;;;1.73;1.63;;;;;;;11.39;66.74;100946.47;4961459;28;20232;-71
2021/06/01 03:21:23;;;;;;;2.40;2.10;;;;;;;11.29;67.30;100947.50;4961360;28;20251;-72
2021/06/01 03:23:50;;;;;;;3.03;1.87;;;;;;;11.14;67.61;100953.81;4951979;28;20957;-71
2021/06/01 03:26:16;;;;;;;2.20;1.77;;;;;;;11.17;67.65;100950.28;4957981;28;20394;-71
2021/06/01 03:28:42;;;;;;;1.90;1.80;;;;;;;11.09;67.78;100946.00;4956061;28;20267;-72
2021/06/01 03:31:10;;;;;;;8.70;1.97;;;;;;;11.30;68.11;100946.63;4962225;28;20742;-70
2021/06/01 03:33:36;;;;;;;2.53;2.30;;;;;;;11.26;66.76;100944.94;4955111;28;20232;-70
2021/06/01 03:36:03;;;;;;;2.47;2.27;;;;;;;11.10;67.88;100939.91;4956127;28;20224;-72
2021/06/01 03:38:31;;;;;;;2.97;1.90;;;;;;;11.13;67.83;100944.22;4958978;28;20249;-72
2021/06/01 03:40:57;;;;;;;2.40;2.17;;;;;;;11.08;68.16;100944.31;4955644;28;20261;-70
2021/06/01 03:43:23;;;;;;;2.77;1.80;;;;;;;11.10;67.87;100941.69;4956850;28;20280;-72
2021/06/01 03:45:49;;;;;;;2.20;2.00;;;;;;;11.21;67.20;100947.59;4955050;28;20217;-71
2021/06/01 03:48:16;;;;;;;2.10;2.00;;;;;;;11.18;66.80;100947.66;4955366;28;20762;-70
2021/06/01 03:50:42;;;;;;;2.43;2.00;;;;;;;11.11;67.49;100944.25;4954690;28;20263;-72
2021/06/01 03:53:09;;;;;;;3.53;2.10;;;;;;;11.09;68.17;100948.63;4951916;28;20228;-72
2021/06/01 03:55:35;;;;;;;1.90;1.70;;;;;;;11.10;68.31;100939.06;4950740;28;20696;-71
2021/06/01 03:58:01;;;;;;;3.07;1.87;;;;;;;11.16;68.57;100943.31;4953881;28;20617;-72
2021/06/01 04:00:30;;;;;;;2.57;2.10;;;;;;;11.10;68.07;100942.53;4965471;28;20284;-71
2021/06/01 04:02:56;;;;;;;2.67;2.00;;;;;;;11.05;68.38;100939.09;4964690;28;20228;-71
2021/06/01 04:05:23;;;;;;;2.40;2.20;;;;;;;11.09;68.62;100943.41;4963895;28;20205;-72
2021/06/01 04:07:49;;;;;;;2.77;2.50;;;;;;;11.08;68.83;100940.81;4966018;28;20226;-72
2021/06/01 04:10:16;;;;;;;3.00;2.30;;;;;;;11.07;69.09;100944.31;4958850;28;20229;-72
2021/06/01 04:12:42;;;;;;;2.70;2.13;;;;;;;11.10;69.44;100939.91;4951994;28;20300;-73
2021/06/01 04:15:10;;;;;;;2.53;2.33;;;;;;;11.21;69.82;100938.91;4957140;28;20219;-73
2021/06/01 04:17:35;;;;;;;2.27;1.97;;;;;;;11.13;69.63;100942.47;4952660;28;20204;-77
2021/06/01 04:20:04;;;;;;;3.23;2.13;;;;;;;11.20;68.87;100943.28;4953824;28;20208;-73
2021/06/01 04:22:32;;;;;;;3.50;2.30;;;;;;;11.21;68.79;100939.75;4955755;28;20250;-73
2021/06/01 04:24:58;;;;;;;3.17;2.30;;;;;;;11.25;68.56;100945.81;4959859;28;20640;-73
2021/06/01 04:27:23;;;;;;;2.87;2.67;;;;;;;11.31;69.18;100946.59;4956631;28;20204;-72
2021/06/01 04:29:49;;;;;;;4.57;3.17;;;;;;;11.47;68.16;100943.75;4956893;28;20882;-73
2021/06/01 04:32:15;;;;;;;6.40;3.90;;;;;;;11.61;67.28;100946.19;4952482;28;20239;-74
2021/06/01 04:34:42;;;;;;;4.63;3.23;;;;;;;11.67;66.63;100943.47;4959317;28;20235;-72
2021/06/01 04:37:08;;;;;;;3.30;2.93;;;;;;;11.75;66.60;100938.97;4958754;28;20232;-73
2021/06/01 04:39:35;;;;;;;3.40;3.10;;;;;;;11.80;66.24;100944.16;4957994;28;20213;-72
2021/06/01 04:42:01;;;;;;;3.57;3.23;;;;;;;11.80;66.40;100939.78;4956135;28;20258;-72
2021/06/01 04:44:27;;;;;;;3.80;3.20;;;;;;;11.76;67.00;100940.72;4954868;28;20233;-73
2021/06/01 04:46:53;;;;;;;3.30;3.00;;;;;;;11.85;66.62;100937.97;4957038;28;20345;-72
2021/06/01 04:49:20;;;;;;;2.70;2.50;;;;;;;11.77;68.22;100931.97;4954403;28;20581;-76
2021/06/01 04:51:45;;;;;;;3.20;2.90;;;;;;;11.85;67.58;100942.31;4960029;28;20707;-74
2021/06/01 04:54:11;;;;;;;2.67;2.47;;;;;;;11.96;67.88;100943.03;4954870;28;20267;-71
2021/06/01 04:56:39;;;;;;;2.70;2.47;;;;;;;12.07;67.65;100940.22;4957922;28;20710;-74
2021/06/01 04:59:05;;;;;;;4.10;2.40;;;;;;;12.17;68.17;100939.22;4955911;28;20255;-73
2021/06/01 05:01:30;;;;;;;3.60;2.53;;;;;;;12.27;68.88;100943.38;4958137;28;20679;-72
2021/06/01 05:03:56;;;;;;;3.23;2.93;;;;;;;12.34;69.08;100936.28;4956088;28;20287;-73
2021/06/01 05:06:22;;;;;;;2.70;2.50;;;;;;;12.39;68.83;100944.91;4957025;28;20216;-76
2021/06/01 05:08:48;;;;;;;3.90;2.70;;;;;;;12.48;68.97;100938.63;4957869;28;20200;-74
2021/06/01 05:11:15;;;;;;;3.30;2.70;;;;;;;12.61;69.06;100944.53;4956569;28;20229;-74
2021/06/01 05:13:42;;;;;;;2.37;2.17;;;;;;;12.69;68.51;100940.00;4952056;28;20252;-72
2021/06/01 05:16:08;;;;;;;2.70;2.50;;;;;;;12.74;69.20;100939.88;4956900;28;20216;-75
2021/06/01 05:18:34;;;;;;;3.17;2.87;;;;;;;12.83;69.21;100937.94;4956322;28;21907;-73
2021/06/01 05:21:00;;;;;;;2.93;2.70;;;;;;;12.88;69.29;100933.50;4955950;28;20390;-75
2021/06/01 05:23:26;;;;;;;3.10;2.60;;;;;;;12.93;69.59;100938.63;4953844;28;20224;-74
2021/06/01 05:25:54;;;;;;;5.50;2.43;;;;;;;12.97;69.68;100940.28;4955343;28;20595;-73
2021/06/01 05:28:20;;;;;;;3.30;3.00;;;;;;;13.03;69.19;100940.16;4955517;28;20275;-75
2021/06/01 05:30:55;;;;;;;4.87;3.73;;;;;;;13.05;69.42;100943.59;4958783;28;20666;-75
2021/06/01 05:33:23;;;;;;;3.30;3.00;;;;;;;13.05;68.60;100942.75;4955883;28;20287;-74
2021/06/01 05:35:52;;;;;;;3.87;2.90;;;;;;;12.98;68.07;100941.16;4958763;28;20217;-73
2021/06/01 05:38:18;;;;;;;4.47;3.53;;;;;;;12.98;68.97;100939.38;4954592;28;20218;-74
2021/06/01 05:40:44;;;;;;;4.90;2.90;;;;;;;13.05;69.96;100938.38;4953959;28;20241;-72
2021/06/01 05:43:10;;;;;;;3.17;2.97;;;;;;;13.16;68.90;100938.16;4953642;28;20295;-72
2021/06/01 05:45:37;;;;;;;3.30;3.00;;;;;;;13.26;68.62;100942.31;4956595;28;20222;-71
2021/06/01 05:48:05;;;;;;;3.50;3.20;;;;;;;13.34;69.38;100950.03;4957098;28;20224;-72
2021/06/01 05:50:31;;;;;;;3.60;3.30;;;;;;;13.42;69.77;100941.97;4957228;28;20318;-70
2021/06/01 05:52:58;;;;;;;3.53;3.03;;;;;;;13.50;69.74;100945.31;4958506;28;20322;-72
2021/06/01 05:55:24;;;;;;;3.20;3.00;;;;;;;13.53;69.46;100944.34;4957501;28;20205;-71
2021/06/01 05:57:50;;;;;;;3.40;3.10;;;;;;;13.61;69.73;100947.66;4950283;28;20215;-71
2021/06/01 06:00:17;;;;;;;3.90;3.57;;;;;;;13.65;69.61;100944.06;4952194;28;20332;-70
2021/06/01 06:02:43;;;;;;;3.47;3.27;;;;;;;13.66;69.58;100945.81;4955497;28;20287;-71
2021/06/01 06:05:11;;;;;;;3.77;3.50;;;;;;;13.70;69.43;100950.94;4964162;28;20205;-72
2021/06/01 06:07:37;;;;;;;3.50;3.30;;;;;;;13.74;69.42;100951.72;4955005;28;20240;-71
2021/06/01 06:10:04;;;;;;;3.40;3.10;;;;;;;13.76;68.66;100957.81;4951541;28;20286;-71
2021/06/01 06:12:30;;;;;;;3.67;3.37;;;;;;;13.83;68.34;100951.50;4953335;28;20241;-72
2021/06/01 06:14:56;;;;;;;3.60;3.40;;;;;;;13.94;68.69;100958.25;4953916;28;20213;-71
2021/06/01 06:17:34;;;;;;;3.63;3.33;;;;;;;13.99;68.91;100964.25;4951436;28;20304;-71
2021/06/01 06:20:01;;;;;;;4.03;3.60;;;;;;;14.07;68.29;100962.28;4964541;28;20250;-72
2021/06/01 06:22:28;;;;;;;4.03;3.73;;;;;;;14.04;69.10;100960.59;4956388;28;20292;-72
2021/06/01 06:24:54;;;;;;;4.10;3.80;;;;;;;14.10;69.22;100959.59;4959792;28;20312;-70
2021/06/01 06:27:20;;;;;;;5.33;3.40;;;;;;;14.21;68.47;100964.56;4955888;28;20306;-72
2021/06/01 06:29:46;;;;;;;4.30;3.90;;;;;;;14.32;68.50;100962.53;4955399;28;20218;-71
2021/06/01 06:32:12;;;;;;;3.97;3.67;;;;;;;14.37;68.60;100963.28;4958952;28;20257;-72
2021/06/01 06:34:38;;;;;;;4.93;4.43;;;;;;;14.42;69.51;100958.75;4949062;28;20621;-71
2021/06/01 06:37:04;;;;;;;3.63;3.33;;;;;;;14.33;69.02;100956.41;4953181;28;20211;-71
2021/06/01 06:39:32;;;;;;;3.90;3.50;;;;;;;14.40;69.02;100955.31;4960145;28;20677;-72
2021/06/01 06:41:58;;;;;;;3.80;3.50;;;;;;;14.55;68.45;100953.16;4955231;28;20221;-72
2021/06/01 06:44:24;;;;;;;3.73;3.33;;;;;;;14.66;67.90;100959.88;4951300;28;20226;-72
2021/06/01 06:47:03;;;;;;;4.60;3.53;;;;;;;14.57;68.11;100954.03;4957934;28;20706;-71
2021/06/01 06:49:29;;;;;;;4.17;3.77;;;;;;;14.63;68.40;100956.50;4954547;28;20699;-72
2021/06/01 06:51:55;;;;;;;4.00;3.70;;;;;;;14.67;67.97;100961.63;4953161;28;20236;-71
2021/06/01 06:54:21;;;;;;;3.23;3.03;;;;;;;14.73;66.02;100960.59;4959891;28;20258;-72
2021/06/01 06:56:48;;;;;;;4.10;3.70;;;;;;;14.74;64.96;100951.78;4954282;28;20249;-72
2021/06/01 06:59:14;;;;;;;3.93;3.37;;;;;;;14.78;63.00;100957.84;4955659;28;20250;-74
2021/06/01 07:01:39;;;;;;;3.40;3.10;;;;;;;14.80;62.25;100956.03;4954098;28;20301;-76
2021/06/01 07:04:05;;;;;;;4.10;3.70;;;;;;;14.74;63.55;100964.09;4952768;28;20225;-74
2021/06/01 07:06:31;;;;;;;3.43;3.13;;;;;;;14.84;64.53;100955.88;4952879;28;20217;-75
2021/06/01 07:08:57;;;;;;;3.30;3.00;;;;;;;14.98;64.26;100955.50;4957358;28;20745;-73
2021/06/01 07:11:23;;;;;;;2.70;2.50;;;;;;;15.13;63.23;100956.81;4954246;28;20317;-73
2021/06/01 07:13:57;;;;;;;2.30;2.20;;;;;;;15.25;62.88;100951.19;4952378;28;21235;-71
2021/06/01 07:16:23;;;;;;;3.30;2.90;;;;;;;15.32;62.20;100945.75;4954198;28;20262;-72
2021/06/01 07:18:48;;;;;;;3.40;3.07;;;;;;;15.41;62.48;100948.09;4954378;28;20222;-73
2021/06/01 07:21:15;;;;;;;3.50;3.23;;;;;;;15.53;62.66;100938.97;4953447;28;20302;-72
2021/06/01 07:23:41;;;;;;;3.63;3.00;;;;;;;15.58;63.52;100942.28;4956350;28;20660;-71
2021/06/01 07:26:09;;;;;;;4.73;2.93;;;;;;;15.72;63.83;100937.47;4954599;28;20686;-71
2021/06/01 07:28:35;;;;;;;3.30;3.10;;;;;;;15.86;62.65;100940.53;4955357;28;21089;-73
2021/06/01 07:31:04;;;;;;;4.07;3.27;;;;;;;15.96;62.67;100938.47;4955554;28;20238;-73
2021/06/01 07:33:30;;;;;;;3.60;3.27;;;;;;;16.00;62.54;100940.09;4956126;28;20617;-72
2021/06/01 07:35:56;;;;;;;3.30;3.03;;;;;;;16.09;61.23;100944.16;4952596;28;20248;-74
2021/06/01 07:38:22;;;;;;;3.60;2.90;;;;;;;16.15;62.24;100937.84;4954640;28;20212;-74
2021/06/01 07:40:48;;;;;;;3.50;3.20;;;;;;;16.28;62.83;100934.72;4954994;28;20240;-71
2021/06/01 07:43:14;;;;;;;3.90;2.93;;;;;;;16.38;62.27;100934.44;4952596;28;20231;-72
2021/06/01 07:45:40;;;;;;;3.03;2.80;;;;;;;16.53;61.31;100933.00;4956339;28;20227;-73
2021/06/01 07:48:07;;;;;;;3.23;3.00;;;;;;;16.67;61.96;100936.88;4954436;28;20215;-73
2021/06/01 07:50:33;;;;;;;3.60;3.00;;;;;;;16.78;59.31;100927.72;4953853;28;20246;-73
2021/06/01 07:52:59;;;;;;;3.20;2.90;;;;;;;16.90;59.56;100939.63;4952883;28;20314;-75
2021/06/01 07:55:25;;;;;;;11.87;3.23;;;;;;;17.01;58.60;100935.66;4953643;28;20219;-75
2021/06/01 07:57:51;;;;;;;3.27;2.97;;;;;;;17.12;58.00;100937.88;4958229;28;20214;-75
2021/06/01 08:00:18;;;;;;;3.43;3.13;;;;;;;17.22;56.61;100925.19;4951933;28;20201;-73
2021/06/01 08:02:44;;;;;;;3.87;3.43;;;;;;;17.30;55.55;100928.38;4956056;28;20235;-74
2021/06/01 08:05:12;;;;;;;4.13;3.60;;;;;;;17.39;55.62;100920.13;4955426;28;20598;-74
2021/06/01 08:07:38;;;;;;;4.97;3.50;;;;;;;17.49;56.98;100919.75;4955645;28;20204;-73
2021/06/01 08:10:05;;;;;;;3.10;2.90;;;;;;;17.57;55.03;100915.03;4954969;28;20211;-75
2021/06/01 08:12:31;;;;;;;4.00;3.10;;;;;;;17.75;53.10;100914.28;4955618;28;20793;-76
2021/06/01 08:14:58;;;;;;;3.03;2.67;;;;;;;17.87;52.94;100910.31;4958571;28;20215;-76
2021/06/01 08:17:24;;;;;;;2.87;2.43;;;;;;;17.98;52.99;100913.34;4951052;28;20215;-75
2021/06/01 08:19:52;;;;;;;4.43;2.67;;;;;;;17.99;51.70;100908.94;4956756;28;20208;-77
2021/06/01 08:22:30;;;;;;;3.60;2.73;;;;;;;18.09;51.87;100904.13;4961465;28;20264;-77
2021/06/01 08:24:56;;;;;;;3.47;2.93;;;;;;;18.10;52.05;100904.06;4961124;28;20630;-77
2021/06/01 08:27:22;;;;;;;5.43;3.17;;;;;;;18.13;53.66;100901.25;4953114;28;20702;-76
2021/06/01 08:29:48;;;;;;;4.73;2.70;;;;;;;18.19;51.78;100906.28;4953877;28;20230;-76
2021/06/01 08:32:14;;;;;;;3.47;2.47;;;;;;;18.29;50.66;100901.47;4957335;28;20243;-73
2021/06/01 08:34:40;;;;;;;3.70;2.90;;;;;;;18.31;49.64;100904.88;4952853;28;20236;-76
2021/06/01 08:37:06;;;;;;;4.63;3.47;;;;;;;18.39;49.36;100901.91;4953063;28;20218;-73
2021/06/01 08:39:33;;;;;;;4.60;3.03;;;;;;;18.44;48.30;100906.06;4952002;28;20634;-71
2021/06/01 08:41:59;;;;;;;3.50;3.20;;;;;;;18.63;49.78;100899.97;4951842;28;20220;-76
2021/06/01 08:44:27;;;;;;;4.07;3.60;;;;;;;18.74;50.97;100908.28;4952440;28;20414;-76
2021/06/01 08:46:54;;;;;;;3.43;2.97;;;;;;;18.81;50.86;100904.47;4953810;28;20216;-74
2021/06/01 08:49:20;;;;;;;3.30;3.00;;;;;;;18.87;50.41;100905.09;4956902;28;20340;-77
2021/06/01 08:51:47;;;;;;;5.83;3.20;;;;;;;18.98;50.12;100894.88;4950159;28;20725;-73
2021/06/01 08:54:14;;;;;;;3.80;2.87;;;;;;;19.07;49.94;100894.47;4954190;28;20703;-73
2021/06/01 08:56:41;;;;;;;3.37;3.07;;;;;;;19.00;48.67;100890.38;4951416;28;20249;-76
2021/06/01 08:59:08;;;;;;;3.40;3.10;;;;;;;19.08;50.05;100887.38;4951846;28;20683;-74
2021/06/01 09:01:35;;;;;;;5.03;3.20;;;;;;;19.15;49.79;100887.00;4953292;28;20994;-73
2021/06/01 09:04:07;;;;;;;3.40;3.10;;;;;;;19.22;48.47;100879.63;4951863;28;20280;-73
2021/06/01 09:06:35;;;;;;;3.73;3.20;;;;;;;19.35;47.57;100872.81;4954478;28;20302;-72
2021/06/01 09:09:18;;;;;;;3.23;2.93;;;;;;;19.38;46.48;100883.25;4955405;28;20231;-72
2021/06/01 09:11:54;;;;;;;3.17;2.87;;;;;;;19.46;48.53;100872.28;4953786;28;20230;-73
2021/06/01 09:22:52;;;;;;;3.13;2.77;;;;;;;19.58;48.11;100865.53;4954648;28;20329;-72
2021/06/01 09:25:22;;;;;;;3.47;3.17;;;;;;;19.65;48.07;100859.84;4957098;28;20678;-73
2021/06/01 09:27:51;;;;;;;4.07;3.53;;;;;;;19.71;46.15;100857.84;4954955;28;20208;-73
2021/06/01 09:30:36;;;;;;;3.73;2.67;;;;;;;19.88;48.39;100857.00;4956556;28;20211;-72
2021/06/01 09:33:03;;;;;;;4.00;2.90;;;;;;;19.99;47.49;100852.00;4954824;28;20268;-73
2021/06/01 09:35:48;;;;;;;4.73;3.10;;;;;;;20.13;47.39;100859.25;4957047;28;20212;-73
2021/06/01 09:38:16;;;;;;;3.50;3.20;;;;;;;20.18;46.52;100862.53;4955235;28;20302;-73
2021/06/01 09:40:42;;;;;;;3.37;3.07;;;;;;;20.36;48.95;100860.69;4956822;28;20747;-72
2021/06/01 09:43:13;;;;;;;3.03;2.80;;;;;;;20.45;44.63;100854.88;4957115;28;20719;-73
2021/06/01 09:45:38;;;;;;;3.50;3.30;;;;;;;20.61;45.07;100852.28;4956673;28;20216;-72
2021/06/01 09:48:07;;;;;;;4.17;3.20;;;;;;;20.70;46.42;100853.59;4958008;28;20259;-74
2021/06/01 09:50:38;;;;;;;3.23;3.00;;;;;;;20.86;47.13;100848.31;4951584;28;20271;-72
2021/06/01 09:53:06;;;;;;;4.20;3.80;;;;;;;20.97;47.14;100846.78;4953451;28;20328;-73
2021/06/01 09:55:38;;;;;;;3.63;3.33;;;;;;;21.07;47.35;100843.59;4950516;28;20234;-72
2021/06/01 09:58:07;;;;;;;3.70;3.40;;;;;;;21.19;44.78;100848.22;4956790;28;20213;-73
2021/06/01 10:00:36;;;;;;;3.43;3.20;;;;;;;21.29;44.35;100840.56;4952642;28;20211;-70
2021/06/01 10:03:04;;;;;;;3.60;3.30;;;;;;;21.26;48.54;100836.28;4953499;28;20667;-74
2021/06/01 10:05:32;;;;;;;3.50;3.20;;;;;;;21.38;47.04;100834.72;4958884;28;20240;-74
2021/06/01 10:07:59;;;;;;;3.67;3.37;;;;;;;21.26;43.05;100820.34;4958180;28;20299;-72
2021/06/01 10:10:27;;;;;;;3.80;3.50;;;;;;;21.37;47.87;100833.03;4955005;28;20212;-73
2021/06/01 10:12:55;;;;;;;4.67;3.50;;;;;;;21.42;46.28;100831.78;4956050;28;20298;-72
2021/06/01 10:15:23;;;;;;;3.30;3.10;;;;;;;21.54;43.83;100824.94;4952105;28;20212;-72
2021/06/01 10:17:51;;;;;;;3.13;2.93;;;;;;;21.51;44.03;100825.16;4954816;28;20249;-72
2021/06/01 10:20:19;;;;;;;3.93;3.53;;;;;;;21.53;43.22;100822.41;4951723;28;21012;-73
2021/06/01 10:22:45;;;;;;;4.43;3.40;;;;;;;21.46;44.95;100815.72;4958806;28;20259;-73
2021/06/01 10:25:12;;;;;;;3.63;3.00;;;;;;;21.61;45.08;100813.03;4954931;28;20308;-73
2021/06/01 10:27:39;;;;;;;3.67;3.43;;;;;;;21.63;42.98;100815.59;4956221;28;20209;-72
2021/06/01 10:30:08;;;;;;;6.37;3.40;;;;;;;21.70;43.23;100811.59;4964342;28;20212;-71
2021/06/01 10:32:38;;;;;;;3.97;3.27;;;;;;;21.78;43.08;100811.16;4962689;28;20236;-71
2021/06/01 10:35:10;;;;;;;3.67;3.37;;;;;;;21.85;44.30;100809.00;4966431;28;20750;-72
2021/06/01 10:48:54;;;;;;;3.83;3.53;;;;;;;21.98;41.97;100794.88;4950650;28;20275;-73
2021/06/01 10:51:27;;;;;;;3.80;3.60;;;;;;;21.95;44.07;100799.53;4954927;28;20227;-73
2021/06/01 10:53:54;;;;;;;4.50;3.20;;;;;;;22.04;42.98;100800.75;4961207;28;20828;-71
2021/06/01 10:56:20;;;;;;;3.70;3.43;;;;;;;22.17;44.38;100797.25;4954364;28;20242;-71
2021/06/01 10:59:11;;;;;;;3.43;3.13;;;;;;;22.32;43.69;100791.94;4953818;28;20593;-71
2021/06/01 11:04:31;;;;;;;3.67;3.43;;;;;;;22.51;42.48;100786.34;4925275;28;20225;-71
2021/06/01 11:07:41;;;;;;;3.90;3.50;;;;;;;22.50;42.22;100779.31;4953767;28;20591;-72
2021/06/01 11:10:07;;;;;;;3.60;3.40;;;;;;;22.75;40.99;100773.25;4952694;28;20216;-71
2021/06/01 11:12:44;;;;;;;3.90;3.60;;;;;;;22.89;40.48;100773.19;4954013;28;20372;-73
2021/06/01 11:15:32;;;;;;;3.87;3.57;;;;;;;23.11;39.47;100763.84;4956509;28;20255;-71
2021/06/01 11:18:32;;;;;;;4.60;3.77;;;;;;;23.31;42.55;100763.38;4956900;28;20215;-72
2021/06/01 11:21:14;;;;;;;3.90;3.60;;;;;;;23.48;40.69;100759.56;4893597;29;20210;-72
2021/06/01 11:33:08;;;;;;;4.33;3.93;;;;;;;25.00;38.16;100750.63;4948606;28;20811;-72
2021/06/01 11:35:39;;;;;;;3.93;3.60;;;;;;;25.78;35.04;100754.50;4955205;28;20213;-71
2021/06/01 11:38:11;;;;;;;3.67;3.40;;;;;;;26.74;36.47;100750.50;4955307;28;20219;-70
2021/06/01 11:40:51;;;;;;;4.30;4.00;;;;;;;27.90;32.95;100744.34;4951553;28;20611;-72
2021/06/01 11:43:20;;;;;;;4.10;3.80;;;;;;;28.71;32.59;100738.97;4958686;28;20286;-72
2021/06/01 11:45:52;;;;;;;4.67;4.37;;;;;;;29.44;29.84;100739.41;4953774;28;20356;-72
2021/06/01 11:50:56;;;;;;;5.20;4.70;;;;;;;30.22;28.10;100736.47;4960651;28;20290;-71
2021/06/01 11:51:17;;;;;;;4.90;4.50;;;;;;;31.91;25.83;100726.69;4956680;28;20242;-72
2021/06/01 11:53:48;;;;;;;4.80;4.30;;;;;;;32.92;24.14;100728.56;4959025;28;20394;-72
2021/06/01 11:56:17;;;;;;;4.03;3.73;;;;;;;33.50;23.09;100725.84;4958907;28;20216;-72
2021/06/01 12:02:02;;;;;;;4.33;4.03;;;;;;;34.16;21.86;100724.69;4953651;28;20379;-71
2021/06/01 12:04:43;;;;;;;4.37;4.07;;;;;;;33.73;21.63;100726.00;4951131;28;20224;-71
2021/06/01 12:13:11;;;;;;;4.08;3.88;;;;;;;33.80;21.19;100718.88;4807423;28;10000741;-72